sensor_id;sensor_type;location;lat;lon;timestamp;pressure;altitude;pressure_sealevel;temperature;humidity
23164;BME280;31429;42.674;23.350;2022-12-07T00:00:30;94727.88;;;5.67;100.00
23164;BME280;31429;42.674;23.350;2022-12-07T00:01:33;94766.19;;;5.97;100.00
23164;BME280;31429;42.674;23.350;2022-12-07T00:02:34;94717.78;;;5.64;100.00
23164;BME280;31429;42.674;23.350;2022-12-07T00:03:35;94722.03;;;5.62;100.00
23164;BME280;31429;42.674;23.350;2022-12-07T00:04:36;94764.81;;;5.79;100.00
23164;BME280;31429;42.674;23.350;2022-12-07T00:05:37;94725.44;;;5.61;100.00
23164;BME280;31429;42.674;23.350;2022-12-07T00:06:40;94714.56;;;5.55;100.00
23164;BME280;31429;42.674;23.350;2022-12-07T00:07:42;94741.31;;;5.71;100.00
23164;BME280;31429;42.674;23.350;2022-12-07T00:08:43;94716.16;;;5.60;100.00
23164;BME280;31429;42.674;23.350;2022-12-07T00:09:45;94743.47;;;5.92;100.00
23164;BME280;31429;42.674;23.350;2022-12-07T00:10:46;94712.66;;;5.67;100.00
23164;BME280;31429;42.674;23.350;2022-12-07T00:11:49;94712.84;;;5.57;100.00
23164;BME280;31429;42.674;23.350;2022-12-07T00:12:50;94734.69;;;5.64;100.00
23164;BME280;31429;42.674;23.350;2022-12-07T00:13:55;94750.66;;;5.69;100.00
23164;BME280;31429;42.674;23.350;2022-12-07T00:14:57;94739.59;;;5.73;100.00
23164;BME280;31429;42.674;23.350;2022-12-07T00:16:01;94733.63;;;5.74;100.00
23164;BME280;31429;42.674;23.350;2022-12-07T00:17:02;94728.56;;;5.75;100.00
23164;BME280;31429;42.674;23.350;2022-12-07T00:18:03;94745.94;;;5.94;100.00
23164;BME280;31429;42.674;23.350;2022-12-07T00:19:04;94744.00;;;6.06;100.00
23164;BME280;31429;42.674;23.350;2022-12-07T00:20:06;94699.53;;;5.90;100.00
23164;BME280;31429;42.674;23.350;2022-12-07T00:21:10;94703.84;;;5.85;100.00
23164;BME280;31429;42.674;23.350;2022-12-07T00:22:11;94730.84;;;5.89;100.00
23164;BME280;31429;42.674;23.350;2022-12-07T00:23:13;94754.19;;;6.05;100.00
23164;BME280;31429;42.674;23.350;2022-12-07T00:24:14;94741.91;;;5.85;100.00
23164;BME280;31429;42.674;23.350;2022-12-07T00:25:15;94707.78;;;5.57;100.00
23164;BME280;31429;42.674;23.350;2022-12-07T00:26:18;94746.06;;;5.88;100.00
23164;BME280;31429;42.674;23.350;2022-12-07T00:27:19;94732.56;;;5.87;100.00
23164;BME280;31429;42.674;23.350;2022-12-07T00:28:20;94719.91;;;5.86;100.00
23164;BME280;31429;42.674;23.350;2022-12-07T00:30:36;94766.22;;;5.95;100.00
23164;BME280;31429;42.674;23.350;2022-12-07T00:31:38;94720.44;;;5.57;100.00
23164;BME280;31429;42.674;23.350;2022-12-07T00:32:41;94738.66;;;5.77;100.00
23164;BME280;31429;42.674;23.350;2022-12-07T00:33:42;94718.03;;;5.51;100.00
23164;BME280;31429;42.674;23.350;2022-12-07T00:34:43;94760.75;;;5.70;100.00
23164;BME280;31429;42.674;23.350;2022-12-07T00:35:44;94728.22;;;5.49;100.00
23164;BME280;31429;42.674;23.350;2022-12-07T00:36:45;94745.84;;;5.55;100.00
23164;BME280;31429;42.674;23.350;2022-12-07T00:37:46;94768.25;;;5.76;100.00
23164;BME280;31429;42.674;23.350;2022-12-07T00:38:52;94754.03;;;5.69;100.00
23164;BME280;31429;42.674;23.350;2022-12-07T00:39:52;94772.41;;;5.80;100.00
23164;BME280;31429;42.674;23.350;2022-12-07T00:40:55;94737.34;;;5.56;100.00
23164;BME280;31429;42.674;23.350;2022-12-07T00:41:57;94724.84;;;5.49;100.00
23164;BME280;31429;42.674;23.350;2022-12-07T00:42:58;94734.91;;;5.52;100.00
23164;BME280;31429;42.674;23.350;2022-12-07T00:43:59;94767.56;;;5.68;100.00
23164;BME280;31429;42.674;23.350;2022-12-07T00:44:59;94719.75;;;5.50;100.00
23164;BME280;31429;42.674;23.350;2022-12-07T00:46:00;94758.88;;;5.82;100.00
23164;BME280;31429;42.674;23.350;2022-12-07T00:47:04;94720.22;;;5.69;100.00
23164;BME280;31429;42.674;23.350;2022-12-07T00:48:05;94697.50;;;5.63;100.00
23164;BME280;31429;42.674;23.350;2022-12-07T00:49:06;94746.19;;;5.80;100.00
23164;BME280;31429;42.674;23.350;2022-12-07T00:50:07;94748.97;;;5.68;100.00
23164;BME280;31429;42.674;23.350;2022-12-07T00:51:10;94718.88;;;5.51;100.00
23164;BME280;31429;42.674;23.350;2022-12-07T00:52:11;94717.78;;;5.63;100.00
23164;BME280;31429;42.674;23.350;2022-12-07T00:53:12;94694.25;;;5.58;100.00
23164;BME280;31429;42.674;23.350;2022-12-07T00:54:15;94694.06;;;5.67;100.00
23164;BME280;31429;42.674;23.350;2022-12-07T00:55:16;94729.19;;;5.87;100.00
23164;BME280;31429;42.674;23.350;2022-12-07T00:56:19;94695.66;;;5.71;100.00
23164;BME280;31429;42.674;23.350;2022-12-07T00:57:20;94715.69;;;5.83;100.00
23164;BME280;31429;42.674;23.350;2022-12-07T00:58:22;94740.03;;;5.95;100.00
23164;BME280;31429;42.674;23.350;2022-12-07T00:59:23;94729.38;;;5.76;100.00
23164;BME280;31429;42.674;23.350;2022-12-07T01:00:24;94751.94;;;5.91;100.00
23164;BME280;31429;42.674;23.350;2022-12-07T01:01:27;94685.00;;;5.55;100.00
23164;BME280;31429;42.674;23.350;2022-12-07T01:02:28;94712.44;;;5.78;100.00
23164;BME280;31429;42.674;23.350;2022-12-07T01:03:32;94690.69;;;5.65;100.00
23164;BME280;31429;42.674;23.350;2022-12-07T01:04:33;94698.53;;;5.54;100.00
23164;BME280;31429;42.674;23.350;2022-12-07T01:05:35;94711.41;;;5.44;100.00
23164;BME280;31429;42.674;23.350;2022-12-07T01:06:35;94755.06;;;5.59;100.00
23164;BME280;31429;42.674;23.350;2022-12-07T01:07:36;94741.03;;;5.40;100.00
23164;BME280;31429;42.674;23.350;2022-12-07T01:08:37;94686.81;;;5.04;100.00
23164;BME280;31429;42.674;23.350;2022-12-07T01:09:42;94708.53;;;5.17;100.00
23164;BME280;31429;42.674;23.350;2022-12-07T01:10:43;94739.72;;;5.21;100.00
23164;BME280;31429;42.674;23.350;2022-12-07T01:11:52;94699.59;;;4.97;100.00
23164;BME280;31429;42.674;23.350;2022-12-07T01:12:53;94747.16;;;5.29;100.00
23164;BME280;31429;42.674;23.350;2022-12-07T01:13:56;94696.19;;;4.99;100.00
23164;BME280;31429;42.674;23.350;2022-12-07T01:14:57;94738.72;;;5.28;100.00
23164;BME280;31429;42.674;23.350;2022-12-07T01:15:59;94748.50;;;5.49;100.00
23164;BME280;31429;42.674;23.350;2022-12-07T01:17:00;94720.56;;;5.52;100.00
23164;BME280;31429;42.674;23.350;2022-12-07T01:18:01;94711.38;;;5.45;100.00
23164;BME280;31429;42.674;23.350;2022-12-07T01:19:02;94741.56;;;5.57;100.00
23164;BME280;31429;42.674;23.350;2022-12-07T01:20:06;94692.31;;;5.26;100.00
23164;BME280;31429;42.674;23.350;2022-12-07T01:21:09;94730.38;;;5.69;100.00
23164;BME280;31429;42.674;23.350;2022-12-07T01:22:11;94731.16;;;5.72;100.00
23164;BME280;31429;42.674;23.350;2022-12-07T01:23:12;94716.88;;;5.67;100.00
23164;BME280;31429;42.674;23.350;2022-12-07T01:24:15;94704.16;;;5.68;100.00
23164;BME280;31429;42.674;23.350;2022-12-07T01:25:17;94694.19;;;5.61;100.00
23164;BME280;31429;42.674;23.350;2022-12-07T01:26:20;94716.84;;;5.68;100.00
23164;BME280;31429;42.674;23.350;2022-12-07T01:27:21;94710.25;;;5.60;100.00
23164;BME280;31429;42.674;23.350;2022-12-07T01:28:22;94712.91;;;5.54;100.00
23164;BME280;31429;42.674;23.350;2022-12-07T01:29:23;94672.94;;;5.23;100.00
23164;BME280;31429;42.674;23.350;2022-12-07T01:30:24;94719.03;;;5.44;100.00
23164;BME280;31429;42.674;23.350;2022-12-07T01:31:26;94730.13;;;5.38;100.00
23164;BME280;31429;42.674;23.350;2022-12-07T01:32:27;94720.19;;;5.28;100.00
23164;BME280;31429;42.674;23.350;2022-12-07T01:33:30;94685.91;;;5.07;100.00
23164;BME280;31429;42.674;23.350;2022-12-07T01:34:32;94727.78;;;5.28;100.00
23164;BME280;31429;42.674;23.350;2022-12-07T01:35:34;94733.59;;;5.31;100.00
23164;BME280;31429;42.674;23.350;2022-12-07T01:36:35;94682.78;;;4.93;100.00
23164;BME280;31429;42.674;23.350;2022-12-07T01:37:37;94707.97;;;5.00;100.00
23164;BME280;31429;42.674;23.350;2022-12-07T01:38:38;94723.78;;;5.14;100.00
23164;BME280;31429;42.674;23.350;2022-12-07T01:39:40;94722.22;;;5.07;100.00
23164;BME280;31429;42.674;23.350;2022-12-07T01:40:43;94733.91;;;5.16;100.00
23164;BME280;31429;42.674;23.350;2022-12-07T01:41:44;94726.44;;;5.07;100.00
23164;BME280;31429;42.674;23.350;2022-12-07T01:42:45;94733.16;;;5.09;100.00
23164;BME280;31429;42.674;23.350;2022-12-07T01:45:41;94676.34;;;4.75;100.00
23164;BME280;31429;42.674;23.350;2022-12-07T01:46:44;94729.03;;;5.04;100.00
23164;BME280;31429;42.674;23.350;2022-12-07T01:47:47;94676.38;;;4.72;100.00
23164;BME280;31429;42.674;23.350;2022-12-07T01:48:51;94683.00;;;4.81;100.00
23164;BME280;31429;42.674;23.350;2022-12-07T01:49:52;94735.44;;;5.25;100.00
23164;BME280;31429;42.674;23.350;2022-12-07T01:50:56;94671.59;;;5.04;100.00
23164;BME280;31429;42.674;23.350;2022-12-07T01:52:12;94699.25;;;5.16;100.00
23164;BME280;31429;42.674;23.350;2022-12-07T01:53:15;94711.09;;;5.14;100.00
23164;BME280;31429;42.674;23.350;2022-12-07T01:55:26;94689.47;;;4.97;100.00
23164;BME280;31429;42.674;23.350;2022-12-07T01:56:32;94658.56;;;4.78;100.00
23164;BME280;31429;42.674;23.350;2022-12-07T01:57:35;94702.91;;;5.02;100.00
23164;BME280;31429;42.674;23.350;2022-12-07T01:58:37;94728.06;;;5.11;100.00
23164;BME280;31429;42.674;23.350;2022-12-07T01:59:39;94682.03;;;4.88;100.00
23164;BME280;31429;42.674;23.350;2022-12-07T02:00:40;94720.41;;;5.14;100.00
23164;BME280;31429;42.674;23.350;2022-12-07T02:01:41;94682.75;;;4.96;100.00
23164;BME280;31429;42.674;23.350;2022-12-07T02:02:45;94661.84;;;4.85;100.00
23164;BME280;31429;42.674;23.350;2022-12-07T02:03:47;94691.03;;;5.04;100.00
23164;BME280;31429;42.674;23.350;2022-12-07T02:04:50;94683.28;;;5.13;100.00
23164;BME280;31429;42.674;23.350;2022-12-07T02:05:53;94685.56;;;5.25;100.00
23164;BME280;31429;42.674;23.350;2022-12-07T02:06:55;94656.31;;;5.09;100.00
23164;BME280;31429;42.674;23.350;2022-12-07T02:07:57;94648.81;;;5.04;100.00
23164;BME280;31429;42.674;23.350;2022-12-07T02:08:58;94672.41;;;5.06;100.00
23164;BME280;31429;42.674;23.350;2022-12-07T02:10:14;94664.19;;;4.94;100.00
23164;BME280;31429;42.674;23.350;2022-12-07T02:11:15;94699.38;;;5.10;100.00
23164;BME280;31429;42.674;23.350;2022-12-07T02:12:19;94707.78;;;5.11;100.00
23164;BME280;31429;42.674;23.350;2022-12-07T02:13:22;94719.44;;;5.19;100.00
23164;BME280;31429;42.674;23.350;2022-12-07T02:14:24;94699.50;;;5.03;100.00
23164;BME280;31429;42.674;23.350;2022-12-07T02:15:28;94717.06;;;5.12;100.00
23164;BME280;31429;42.674;23.350;2022-12-07T02:16:40;94694.50;;;4.98;100.00
23164;BME280;31429;42.674;23.350;2022-12-07T02:17:50;94687.06;;;4.89;100.00
23164;BME280;31429;42.674;23.350;2022-12-07T02:19:09;94673.72;;;4.80;100.00
23164;BME280;31429;42.674;23.350;2022-12-07T02:20:26;94662.88;;;4.72;100.00
23164;BME280;31429;42.674;23.350;2022-12-07T02:21:36;94664.47;;;4.79;100.00
23164;BME280;31429;42.674;23.350;2022-12-07T02:23:00;94660.94;;;4.86;100.00
23164;BME280;31429;42.674;23.350;2022-12-07T02:24:25;94721.97;;;5.21;100.00
23164;BME280;31429;42.674;23.350;2022-12-07T02:25:43;94720.38;;;5.15;100.00
23164;BME280;31429;42.674;23.350;2022-12-07T02:27:16;94675.34;;;4.84;100.00
23164;BME280;31429;42.674;23.350;2022-12-07T02:28:30;94674.50;;;4.85;100.00
23164;BME280;31429;42.674;23.350;2022-12-07T02:29:35;94697.78;;;5.05;100.00
23164;BME280;31429;42.674;23.350;2022-12-07T02:30:42;94680.91;;;5.02;100.00
23164;BME280;31429;42.674;23.350;2022-12-07T02:31:48;94660.53;;;5.10;100.00
23164;BME280;31429;42.674;23.350;2022-12-07T02:32:55;94637.69;;;5.11;100.00
23164;BME280;31429;42.674;23.350;2022-12-07T02:34:05;94679.13;;;5.53;100.00
23164;BME280;31429;42.674;23.350;2022-12-07T02:35:13;94690.47;;;5.77;100.00
23164;BME280;31429;42.674;23.350;2022-12-07T02:36:18;94652.16;;;5.49;100.00
23164;BME280;31429;42.674;23.350;2022-12-07T02:37:29;94657.44;;;5.39;100.00
23164;BME280;31429;42.674;23.350;2022-12-07T02:38:39;94661.06;;;5.27;100.00
23164;BME280;31429;42.674;23.350;2022-12-07T02:39:46;94691.34;;;5.33;100.00
23164;BME280;31429;42.674;23.350;2022-12-07T02:40:52;94669.72;;;5.14;100.00
23164;BME280;31429;42.674;23.350;2022-12-07T02:41:57;94660.59;;;5.07;100.00
23164;BME280;31429;42.674;23.350;2022-12-07T02:43:08;94647.34;;;4.91;100.00
23164;BME280;31429;42.674;23.350;2022-12-07T02:44:14;94642.47;;;4.81;100.00
23164;BME280;31429;42.674;23.350;2022-12-07T02:45:21;94653.56;;;4.75;100.00
23164;BME280;31429;42.674;23.350;2022-12-07T02:46:25;94710.41;;;5.08;100.00
23164;BME280;31429;42.674;23.350;2022-12-07T02:47:28;94678.69;;;4.86;100.00
23164;BME280;31429;42.674;23.350;2022-12-07T02:49:38;94661.16;;;4.75;100.00
23164;BME280;31429;42.674;23.350;2022-12-07T02:50:44;94648.34;;;4.83;100.00
23164;BME280;31429;42.674;23.350;2022-12-07T02:51:46;94700.75;;;5.27;100.00
23164;BME280;31429;42.674;23.350;2022-12-07T02:52:47;94668.72;;;5.24;100.00
23164;BME280;31429;42.674;23.350;2022-12-07T02:53:48;94674.47;;;5.32;100.00
23164;BME280;31429;42.674;23.350;2022-12-07T02:54:49;94679.75;;;5.20;100.00
23164;BME280;31429;42.674;23.350;2022-12-07T02:55:50;94679.06;;;5.12;100.00
23164;BME280;31429;42.674;23.350;2022-12-07T02:56:56;94678.38;;;5.02;100.00
23164;BME280;31429;42.674;23.350;2022-12-07T02:58:15;94634.78;;;4.87;100.00
23164;BME280;31429;42.674;23.350;2022-12-07T02:59:28;94657.19;;;5.08;100.00
23164;BME280;31429;42.674;23.350;2022-12-07T03:00:39;94675.44;;;5.25;100.00
23164;BME280;31429;42.674;23.350;2022-12-07T03:01:51;94694.69;;;5.35;100.00
23164;BME280;31429;42.674;23.350;2022-12-07T03:02:59;94675.56;;;5.19;100.00
23164;BME280;31429;42.674;23.350;2022-12-07T03:04:08;94692.41;;;5.20;100.00
23164;BME280;31429;42.674;23.350;2022-12-07T03:05:28;94649.22;;;4.82;100.00
23164;BME280;31429;42.674;23.350;2022-12-07T03:06:35;94634.13;;;4.76;100.00
23164;BME280;31429;42.674;23.350;2022-12-07T03:07:48;94661.94;;;4.79;100.00
23164;BME280;31429;42.674;23.350;2022-12-07T03:09:05;94668.00;;;4.70;100.00
23164;BME280;31429;42.674;23.350;2022-12-07T03:10:16;94673.91;;;4.71;100.00
23164;BME280;31429;42.674;23.350;2022-12-07T03:11:25;94687.22;;;4.80;100.00
23164;BME280;31429;42.674;23.350;2022-12-07T03:14:00;94652.84;;;4.65;100.00
23164;BME280;31429;42.674;23.350;2022-12-07T03:15:10;94659.69;;;4.62;100.00
23164;BME280;31429;42.674;23.350;2022-12-07T03:16:15;94643.94;;;4.45;100.00
23164;BME280;31429;42.674;23.350;2022-12-07T03:17:19;94627.22;;;4.35;100.00
23164;BME280;31429;42.674;23.350;2022-12-07T03:18:23;94622.22;;;4.32;100.00
23164;BME280;31429;42.674;23.350;2022-12-07T03:20:40;94614.63;;;4.33;100.00
23164;BME280;31429;42.674;23.350;2022-12-07T03:21:46;94622.13;;;4.38;100.00
23164;BME280;31429;42.674;23.350;2022-12-07T03:22:56;94630.53;;;4.38;100.00
23164;BME280;31429;42.674;23.350;2022-12-07T03:24:01;94625.59;;;4.32;100.00
23164;BME280;31429;42.674;23.350;2022-12-07T03:25:07;94679.13;;;4.60;100.00
23164;BME280;31429;42.674;23.350;2022-12-07T03:26:12;94629.81;;;4.32;100.00
23164;BME280;31429;42.674;23.350;2022-12-07T03:27:17;94678.34;;;4.56;100.00
23164;BME280;31429;42.674;23.350;2022-12-07T03:28:21;94622.38;;;4.23;100.00
23164;BME280;31429;42.674;23.350;2022-12-07T03:29:28;94614.84;;;4.20;100.00
23164;BME280;31429;42.674;23.350;2022-12-07T03:32:58;94672.59;;;4.47;100.00
23164;BME280;31429;42.674;23.350;2022-12-07T03:34:06;94638.41;;;4.20;100.00
23164;BME280;31429;42.674;23.350;2022-12-07T03:35:12;94660.16;;;4.33;100.00
23164;BME280;31429;42.674;23.350;2022-12-07T03:36:22;94621.78;;;4.07;100.00
23164;BME280;31429;42.674;23.350;2022-12-07T03:37:30;94625.06;;;4.12;100.00
23164;BME280;31429;42.674;23.350;2022-12-07T03:38:38;94634.28;;;4.15;100.00
23164;BME280;31429;42.674;23.350;2022-12-07T03:39:46;94665.31;;;4.27;100.00
23164;BME280;31429;42.674;23.350;2022-12-07T03:41:11;94630.25;;;4.03;100.00
23164;BME280;31429;42.674;23.350;2022-12-07T03:42:14;94632.69;;;4.09;100.00
23164;BME280;31429;42.674;23.350;2022-12-07T03:43:16;94637.59;;;4.20;100.00
23164;BME280;31429;42.674;23.350;2022-12-07T03:44:20;94619.91;;;4.20;100.00
23164;BME280;31429;42.674;23.350;2022-12-07T03:45:25;94631.31;;;4.43;100.00
23164;BME280;31429;42.674;23.350;2022-12-07T03:46:36;94673.84;;;4.72;100.00
23164;BME280;31429;42.674;23.350;2022-12-07T03:47:44;94623.06;;;4.32;100.00
23164;BME280;31429;42.674;23.350;2022-12-07T03:48:55;94658.19;;;4.49;100.00
23164;BME280;31429;42.674;23.350;2022-12-07T03:50:00;94615.72;;;4.16;100.00
23164;BME280;31429;42.674;23.350;2022-12-07T03:51:09;94645.81;;;4.32;100.00
23164;BME280;31429;42.674;23.350;2022-12-07T03:52:18;94666.72;;;4.43;100.00
23164;BME280;31429;42.674;23.350;2022-12-07T03:53:29;94646.75;;;4.28;100.00
23164;BME280;31429;42.674;23.350;2022-12-07T03:54:36;94627.56;;;4.14;100.00
23164;BME280;31429;42.674;23.350;2022-12-07T03:55:41;94657.72;;;4.27;100.00
23164;BME280;31429;42.674;23.350;2022-12-07T03:56:44;94646.00;;;4.22;100.00
23164;BME280;31429;42.674;23.350;2022-12-07T03:57:51;94646.59;;;4.37;100.00
23164;BME280;31429;42.674;23.350;2022-12-07T03:58:54;94668.88;;;4.68;100.00
23164;BME280;31429;42.674;23.350;2022-12-07T03:59:55;94634.47;;;4.54;100.00
23164;BME280;31429;42.674;23.350;2022-12-07T04:01:00;94648.63;;;4.68;100.00
23164;BME280;31429;42.674;23.350;2022-12-07T04:02:03;94655.97;;;4.81;100.00
23164;BME280;31429;42.674;23.350;2022-12-07T04:03:05;94641.63;;;4.82;100.00
23164;BME280;31429;42.674;23.350;2022-12-07T04:04:07;94639.94;;;4.82;100.00
23164;BME280;31429;42.674;23.350;2022-12-07T04:05:11;94673.31;;;5.04;100.00
23164;BME280;31429;42.674;23.350;2022-12-07T04:06:12;94623.22;;;4.74;100.00
23164;BME280;31429;42.674;23.350;2022-12-07T04:07:13;94668.63;;;4.81;100.00
23164;BME280;31429;42.674;23.350;2022-12-07T04:08:13;94616.22;;;4.39;100.00
23164;BME280;31429;42.674;23.350;2022-12-07T04:09:17;94653.94;;;4.52;100.00
23164;BME280;31429;42.674;23.350;2022-12-07T04:10:18;94654.78;;;4.53;100.00
23164;BME280;31429;42.674;23.350;2022-12-07T04:11:19;94644.66;;;4.53;100.00
23164;BME280;31429;42.674;23.350;2022-12-07T04:12:20;94602.84;;;4.29;100.00
23164;BME280;31429;42.674;23.350;2022-12-07T04:13:21;94646.34;;;4.52;100.00
23164;BME280;31429;42.674;23.350;2022-12-07T04:14:22;94623.09;;;4.31;100.00
23164;BME280;31429;42.674;23.350;2022-12-07T04:15:23;94617.38;;;4.18;100.00
23164;BME280;31429;42.674;23.350;2022-12-07T04:16:24;94652.47;;;4.39;100.00
23164;BME280;31429;42.674;23.350;2022-12-07T04:17:25;94667.38;;;4.56;100.00
23164;BME280;31429;42.674;23.350;2022-12-07T04:18:29;94624.47;;;4.48;100.00
23164;BME280;31429;42.674;23.350;2022-12-07T04:19:32;94602.41;;;4.56;100.00
23164;BME280;31429;42.674;23.350;2022-12-07T04:20:39;94627.44;;;4.73;100.00
23164;BME280;31429;42.674;23.350;2022-12-07T04:21:41;94616.91;;;4.47;100.00
23164;BME280;31429;42.674;23.350;2022-12-07T04:22:42;94652.94;;;4.62;100.00
23164;BME280;31429;42.674;23.350;2022-12-07T04:23:46;94629.00;;;4.30;100.00
23164;BME280;31429;42.674;23.350;2022-12-07T04:24:48;94621.53;;;4.21;100.00
23164;BME280;31429;42.674;23.350;2022-12-07T04:25:51;94614.13;;;4.10;100.00
23164;BME280;31429;42.674;23.350;2022-12-07T04:26:52;94636.72;;;4.22;100.00
23164;BME280;31429;42.674;23.350;2022-12-07T04:27:53;94656.75;;;4.36;100.00
23164;BME280;31429;42.674;23.350;2022-12-07T04:30:08;94633.53;;;4.11;100.00
23164;BME280;31429;42.674;23.350;2022-12-07T04:31:09;94655.19;;;4.27;100.00
23164;BME280;31429;42.674;23.350;2022-12-07T04:32:10;94646.88;;;4.18;100.00
23164;BME280;31429;42.674;23.350;2022-12-07T04:33:11;94656.97;;;4.21;100.00
23164;BME280;31429;42.674;23.350;2022-12-07T04:34:12;94620.97;;;4.05;100.00
23164;BME280;31429;42.674;23.350;2022-12-07T04:35:15;94640.13;;;4.20;100.00
23164;BME280;31429;42.674;23.350;2022-12-07T04:36:16;94661.94;;;4.28;100.00
23164;BME280;31429;42.674;23.350;2022-12-07T04:37:17;94637.59;;;4.20;100.00
23164;BME280;31429;42.674;23.350;2022-12-07T04:38:18;94638.22;;;4.34;100.00
23164;BME280;31429;42.674;23.350;2022-12-07T04:39:20;94620.59;;;4.28;100.00
23164;BME280;31429;42.674;23.350;2022-12-07T04:40:24;94650.69;;;4.44;100.00
23164;BME280;31429;42.674;23.350;2022-12-07T04:41:26;94611.47;;;4.18;100.00
23164;BME280;31429;42.674;23.350;2022-12-07T04:42:27;94631.63;;;4.24;100.00
23164;BME280;31429;42.674;23.350;2022-12-07T04:43:28;94640.09;;;4.21;100.00
23164;BME280;31429;42.674;23.350;2022-12-07T04:44:29;94674.50;;;4.33;100.00
23164;BME280;31429;42.674;23.350;2022-12-07T04:45:30;94651.19;;;4.14;100.00
23164;BME280;31429;42.674;23.350;2022-12-07T04:46:31;94638.63;;;4.08;100.00
23164;BME280;31429;42.674;23.350;2022-12-07T04:47:32;94650.25;;;4.18;100.00
23164;BME280;31429;42.674;23.350;2022-12-07T04:48:33;94651.16;;;4.16;100.00
23164;BME280;31429;42.674;23.350;2022-12-07T04:49:34;94679.59;;;4.30;100.00
23164;BME280;31429;42.674;23.350;2022-12-07T04:50:36;94670.59;;;4.14;100.00
23164;BME280;31429;42.674;23.350;2022-12-07T04:51:39;94620.38;;;3.86;100.00
23164;BME280;31429;42.674;23.350;2022-12-07T04:52:40;94648.84;;;4.00;100.00
23164;BME280;31429;42.674;23.350;2022-12-07T04:53:44;94659.72;;;4.07;100.00
23164;BME280;31429;42.674;23.350;2022-12-07T04:54:47;94643.13;;;3.88;100.00
23164;BME280;31429;42.674;23.350;2022-12-07T04:55:48;94676.59;;;4.05;100.00
23164;BME280;31429;42.674;23.350;2022-12-07T04:56:49;94679.09;;;4.08;100.00
23164;BME280;31429;42.674;23.350;2022-12-07T04:57:50;94677.41;;;4.09;100.00
23164;BME280;31429;42.674;23.350;2022-12-07T04:58:52;94684.16;;;4.08;100.00
23164;BME280;31429;42.674;23.350;2022-12-07T04:59:53;94679.13;;;4.05;100.00
23164;BME280;31429;42.674;23.350;2022-12-07T05:00:54;94677.53;;;3.99;100.00
23164;BME280;31429;42.674;23.350;2022-12-07T05:01:55;94679.22;;;3.97;100.00
23164;BME280;31429;42.674;23.350;2022-12-07T05:02:56;94679.28;;;3.93;100.00
23164;BME280;31429;42.674;23.350;2022-12-07T05:03:56;94675.00;;;3.99;100.00
23164;BME280;31429;42.674;23.350;2022-12-07T05:04:57;94679.94;;;4.07;100.00
23164;BME280;31429;42.674;23.350;2022-12-07T05:05:59;94677.38;;;4.10;100.00
23164;BME280;31429;42.674;23.350;2022-12-07T05:07:00;94677.41;;;4.09;100.00
23164;BME280;31429;42.674;23.350;2022-12-07T05:08:00;94664.97;;;3.93;100.00
23164;BME280;31429;42.674;23.350;2022-12-07T05:09:01;94685.19;;;3.93;100.00
23164;BME280;31429;42.674;23.350;2022-12-07T05:10:02;94671.84;;;3.84;100.00
23164;BME280;31429;42.674;23.350;2022-12-07T05:11:05;94686.19;;;3.82;100.00
23164;BME280;31429;42.674;23.350;2022-12-07T05:12:05;94681.22;;;3.77;100.00
23164;BME280;31429;42.674;23.350;2022-12-07T05:13:06;94687.91;;;3.78;100.00
23164;BME280;31429;42.674;23.350;2022-12-07T05:14:11;94687.91;;;3.80;100.00
23164;BME280;31429;42.674;23.350;2022-12-07T05:15:13;94689.53;;;3.84;100.00
23164;BME280;31429;42.674;23.350;2022-12-07T05:16:14;94676.00;;;3.88;100.00
23164;BME280;31429;42.674;23.350;2022-12-07T05:17:14;94675.16;;;3.87;100.00
23164;BME280;31429;42.674;23.350;2022-12-07T05:18:17;94682.78;;;3.86;100.00
23164;BME280;31429;42.674;23.350;2022-12-07T05:19:37;94681.03;;;3.91;100.00
23164;BME280;31429;42.674;23.350;2022-12-07T05:20:38;94674.28;;;3.91;100.00
23164;BME280;31429;42.674;23.350;2022-12-07T05:21:40;94679.34;;;3.90;100.00
23164;BME280;31429;42.674;23.350;2022-12-07T05:22:41;94681.03;;;3.91;100.00
23164;BME280;31429;42.674;23.350;2022-12-07T05:23:42;94675.16;;;3.87;100.00
23164;BME280;31429;42.674;23.350;2022-12-07T05:24:42;94672.59;;;3.89;100.00
23164;BME280;31429;42.674;23.350;2022-12-07T05:25:43;94669.94;;;3.99;100.00
23164;BME280;31429;42.674;23.350;2022-12-07T05:26:45;94668.09;;;4.11;100.00
23164;BME280;31429;42.674;23.350;2022-12-07T05:27:45;94667.13;;;4.19;100.00
23164;BME280;31429;42.674;23.350;2022-12-07T05:28:50;94673.09;;;4.14;100.00
23164;BME280;31429;42.674;23.350;2022-12-07T05:29:51;94676.63;;;4.03;100.00
23164;BME280;31429;42.674;23.350;2022-12-07T05:30:52;94676.66;;;4.02;100.00
23164;BME280;31429;42.674;23.350;2022-12-07T05:31:52;94670.88;;;3.94;100.00
23164;BME280;31429;42.674;23.350;2022-12-07T05:32:53;94677.56;;;3.95;100.00
23164;BME280;31429;42.674;23.350;2022-12-07T05:33:54;94670.00;;;3.95;100.00
23164;BME280;31429;42.674;23.350;2022-12-07T05:34:55;94675.84;;;3.98;100.00
23164;BME280;31429;42.674;23.350;2022-12-07T05:35:56;94679.22;;;3.97;100.00
23164;BME280;31429;42.674;23.350;2022-12-07T05:36:58;94677.56;;;3.95;100.00
23164;BME280;31429;42.674;23.350;2022-12-07T05:37:58;94675.97;;;3.89;100.00
23164;BME280;31429;42.674;23.350;2022-12-07T05:39:00;94672.56;;;3.92;100.00
23164;BME280;31429;42.674;23.350;2022-12-07T05:40:01;94668.31;;;3.97;100.00
23164;BME280;31429;42.674;23.350;2022-12-07T05:41:02;94672.09;;;4.25;100.00
23164;BME280;31429;42.674;23.350;2022-12-07T05:42:03;94658.34;;;4.41;100.00
23164;BME280;31429;42.674;23.350;2022-12-07T05:43:12;94668.28;;;4.53;100.00
23164;BME280;31429;42.674;23.350;2022-12-07T05:44:13;94668.22;;;4.55;100.00
23164;BME280;31429;42.674;23.350;2022-12-07T05:45:14;94658.09;;;4.55;100.00